Time;durP1;ratioP1;P1;durP2;ratioP2;P2;SDS_P1;SDS_P2;PMS_P1;PMS_P2;Temp;Humidity;BMP_temperature;BMP_pressure;BME280_temperature;BME280_humidity;BME280_pressure;Samples;Min_cycle;Max_cycle;Signal;HPM_P1;HPM_P2
2022/12/28 00:45:02;;;;;;;2.50;1.53;;;8.80;99.90;;;;;;6186497;23;20413;-85
2022/12/28 02:09:25;;;;;;;1.57;1.30;;;9.00;99.90;;;;;;6133345;23;20437;-83
2022/12/28 03:02:57;;;;;;;1.60;1.50;;;9.50;99.90;;;;;;6091219;23;20407;-82
2022/12/28 05:08:27;;;;;;;1.53;0.70;;;10.40;99.90;;;;;;6057388;23;20372;-84
2022/12/28 06:05:53;;;;;;;1.67;0.90;;;10.80;99.90;;;;;;6224252;23;20558;-83
2022/12/28 06:09:46;;;;;;;;;;;;;;;;;;;;;
2022/12/28 11:42:52;;;;;;;2.70;1.30;;;12.10;99.80;;;;;;6216693;22;20514;-85
2022/12/28 11:46:45;;;;;;;;;;;;;;;;;;;;;
2022/12/28 12:27:04;;;;;;;;;;;;;;;;;;;;;
2022/12/28 17:43:24;;;;;;;;;;;;;;;;;;;;;
2022/12/28 17:47:51;;;;;;;;;;;;;;;;;;;;;
2022/12/28 17:53:52;;;;;;;4.80;1.80;;;12.00;97.20;;;;;;6155984;23;20455;-87
2022/12/28 17:56:41;;;;;;;2.17;1.50;;;12.00;97.50;;;;;;6200711;23;20508;-87
2022/12/28 17:59:24;;;;;;;3.20;1.63;;;11.90;98.20;;;;;;6187513;23;20409;-88
2022/12/28 18:02:13;;;;;;;;;;;;;;;;;;;;;
2022/12/28 18:04:48;;;;;;;2.10;1.80;;;12.00;98.50;;;;;;6192860;23;20410;-88
2022/12/28 18:07:31;;;;;;;2.23;1.70;;;12.00;98.60;;;;;;6162744;23;20402;-86
2022/12/28 18:10:17;;;;;;;5.07;1.93;;;11.90;99.00;;;;;;6167813;23;20402;-87
2022/12/28 18:12:56;;;;;;;4.93;1.80;;;11.90;99.20;;;;;;6167210;23;20448;-85
2022/12/28 18:15:57;;;;;;;3.53;1.73;;;11.80;99.30;;;;;;6165190;23;20421;-88
2022/12/28 18:18:42;;;;;;;1.67;1.40;;;11.90;99.60;;;;;;6168546;23;20416;-87
2022/12/28 18:21:32;;;;;;;4.80;2.37;;;11.80;99.90;;;;;;6164312;23;20442;-87
2022/12/28 18:24:19;;;;;;;2.20;1.80;;;11.80;99.90;;;;;;6185368;23;20540;-87
2022/12/28 18:27:07;;;;;;;1.13;1.03;;;11.70;99.90;;;;;;6224807;23;20389;-87
2022/12/28 18:29:41;;;;;;;1.67;1.57;;;11.70;99.90;;;;;;6198804;23;20503;-88
2022/12/28 18:32:17;;;;;;;1.40;1.30;;;11.60;99.90;;;;;;6200592;23;20849;-87
2022/12/28 18:34:47;;;;;;;1.63;1.37;;;11.70;99.90;;;;;;6170003;23;20520;-86
2022/12/28 18:37:38;;;;;;;1.60;1.20;;;11.70;99.90;;;;;;6168514;23;20909;-88
2022/12/28 18:40:17;;;;;;;1.63;1.50;;;11.60;99.90;;;;;;6169398;23;20461;-87
2022/12/28 18:42:47;;;;;;;1.70;1.27;;;11.60;99.90;;;;;;6168505;23;20959;-86
2022/12/28 18:45:28;;;;;;;1.77;1.50;;;11.60;99.90;;;;;;6189834;23;20437;-88
2022/12/28 18:48:05;;;;;;;2.20;1.23;;;11.60;99.90;;;;;;6190791;23;20409;-87
2022/12/28 18:50:42;;;;;;;1.20;1.10;;;11.60;99.90;;;;;;6166998;23;20436;-88
2022/12/28 18:53:11;;;;;;;2.87;1.60;;;11.50;99.90;;;;;;6167021;23;20441;-88
2022/12/28 18:55:40;;;;;;;1.60;1.50;;;11.50;99.90;;;;;;6178266;23;20413;-88
2022/12/28 18:58:14;;;;;;;1.97;1.13;;;11.60;99.90;;;;;;6172263;23;20412;-87
2022/12/28 19:00:43;;;;;;;1.70;1.60;;;11.50;99.90;;;;;;6169513;23;20469;-88
2022/12/28 19:03:15;;;;;;;1.80;1.33;;;11.50;99.90;;;;;;6153135;23;20431;-89
2022/12/28 19:05:54;;;;;;;1.33;0.93;;;11.50;99.90;;;;;;6168571;23;20461;-88
2022/12/28 19:08:36;;;;;;;1.30;1.20;;;11.50;99.90;;;;;;6174223;23;20405;-88
2022/12/28 19:11:17;;;;;;;1.77;1.00;;;11.60;99.90;;;;;;6178230;23;20413;-87
2022/12/28 19:13:52;;;;;;;2.80;1.10;;;11.60;99.90;;;;;;6177034;23;20433;-88
2022/12/28 19:16:28;;;;;;;1.40;1.00;;;11.70;99.90;;;;;;6199671;23;20405;-88
2022/12/28 19:19:07;;;;;;;0.93;0.90;;;11.60;99.90;;;;;;6170124;23;20798;-88
2022/12/28 19:21:39;;;;;;;1.07;1.03;;;11.70;99.90;;;;;;6165073;23;20454;-87
2022/12/28 19:24:15;;;;;;;1.40;1.30;;;11.70;99.90;;;;;;6170100;23;20445;-86
2022/12/28 19:26:47;;;;;;;3.23;1.53;;;11.70;99.90;;;;;;6175326;23;20409;-87
2022/12/28 19:29:21;;;;;;;1.60;1.50;;;11.70;99.90;;;;;;6195312;23;20414;-88
2022/12/28 19:31:55;;;;;;;0.87;0.83;;;11.70;99.90;;;;;;6197643;23;20414;-87
2022/12/28 19:34:39;;;;;;;1.17;1.07;;;11.70;99.90;;;;;;6185981;23;20442;-90
2022/12/28 19:37:11;;;;;;;1.20;1.20;;;11.70;99.90;;;;;;6167212;23;20410;-86
2022/12/28 19:39:48;;;;;;;1.10;1.10;;;11.70;99.90;;;;;;6167924;23;20445;-86
2022/12/28 19:42:23;;;;;;;1.07;0.90;;;11.70;99.90;;;;;;6167507;23;20477;-86
2022/12/28 19:44:55;;;;;;;1.17;1.07;;;11.80;99.90;;;;;;6192349;23;20437;-87
2022/12/28 19:47:24;;;;;;;1.57;0.80;;;11.80;99.90;;;;;;6170525;23;20462;-90
2022/12/28 19:50:03;;;;;;;1.27;1.17;;;11.80;99.90;;;;;;6210566;23;20473;-89
2022/12/28 19:52:41;;;;;;;1.33;1.23;;;11.80;99.90;;;;;;6187463;23;20393;-89
2022/12/28 19:55:10;;;;;;;1.03;1.03;;;11.70;99.90;;;;;;6187109;23;20410;-88
2022/12/28 19:57:43;;;;;;;2.07;1.97;;;11.80;99.90;;;;;;6187643;23;20413;-89
2022/12/28 20:00:16;;;;;;;1.73;1.63;;;11.80;99.90;;;;;;6184809;23;20674;-85
2022/12/28 20:02:49;;;;;;;1.30;1.20;;;11.80;99.90;;;;;;6166266;23;20422;-88
2022/12/28 20:05:17;;;;;;;1.73;1.30;;;11.70;99.90;;;;;;6193246;23;20481;-86
2022/12/28 20:07:51;;;;;;;1.80;1.70;;;11.80;99.90;;;;;;6166109;23;20415;-87
2022/12/28 20:10:29;;;;;;;2.90;2.10;;;11.70;99.90;;;;;;6165134;23;20413;-87
2022/12/28 20:13:11;;;;;;;1.70;1.60;;;11.80;99.90;;;;;;6168155;23;20945;-87
2022/12/28 20:15:43;;;;;;;1.60;1.50;;;11.80;99.90;;;;;;6165624;23;20426;-86
2022/12/28 20:18:26;;;;;;;2.70;1.73;;;11.90;99.90;;;;;;6179995;23;20413;-88
2022/12/28 20:21:08;;;;;;;1.23;1.13;;;12.00;99.90;;;;;;6187657;23;20441;-89
2022/12/28 20:23:55;;;;;;;1.10;1.00;;;12.10;99.90;;;;;;6188051;23;20448;-89
2022/12/28 20:26:27;;;;;;;2.00;1.23;;;12.20;99.90;;;;;;6197006;23;20402;-87
2022/12/28 20:28:59;;;;;;;1.40;0.90;;;12.20;99.90;;;;;;6169293;23;20414;-87
2022/12/28 20:31:30;;;;;;;1.10;1.00;;;12.20;99.90;;;;;;6177176;23;20429;-89
2022/12/28 20:34:08;;;;;;;1.60;1.07;;;12.30;99.90;;;;;;6186063;23;20453;-89
2022/12/28 20:36:48;;;;;;;1.00;1.00;;;12.30;99.90;;;;;;6177426;23;20429;-88
2022/12/28 20:39:18;;;;;;;1.00;0.90;;;12.30;99.90;;;;;;6150659;23;20965;-87
2022/12/28 20:45:41;;;;;;;1.23;1.13;;;12.40;99.90;;;;;;6205192;23;20968;-87
2022/12/28 20:47:54;;;;;;;2.67;1.40;;;12.30;99.90;;;;;;6187107;23;20599;-85
2022/12/28 20:50:52;;;;;;;1.43;1.30;;;12.40;99.90;;;;;;6204084;23;20406;-87
2022/12/28 20:53:21;;;;;;;1.03;1.00;;;12.40;99.90;;;;;;6190426;23;20441;-86
2022/12/28 20:56:11;;;;;;;1.50;1.40;;;12.50;99.90;;;;;;6179755;23;20444;-88
2022/12/28 20:58:41;;;;;;;1.20;1.10;;;12.50;99.90;;;;;;6205428;23;20421;-87
2022/12/28 21:01:15;;;;;;;1.83;1.20;;;12.50;99.90;;;;;;6179923;23;20449;-86
2022/12/28 21:04:01;;;;;;;1.07;0.97;;;12.50;99.90;;;;;;6180764;23;20440;-86
2022/12/28 21:06:37;;;;;;;1.13;1.03;;;12.60;99.90;;;;;;6180375;23;20412;-87
2022/12/28 21:09:10;;;;;;;1.73;1.10;;;12.60;99.90;;;;;;6182225;23;20405;-87
2022/12/28 21:11:40;;;;;;;1.43;1.17;;;12.50;99.90;;;;;;6200503;23;20436;-86
2022/12/28 21:14:07;;;;;;;1.00;1.00;;;12.50;99.90;;;;;;6199741;23;20437;-87
2022/12/28 21:16:40;;;;;;;1.33;1.27;;;12.40;99.90;;;;;;6173210;23;20426;-89
2022/12/28 21:19:09;;;;;;;1.20;1.10;;;12.50;99.90;;;;;;6174398;23;20473;-87
2022/12/28 21:21:47;;;;;;;3.13;1.27;;;12.50;99.90;;;;;;6173668;23;20503;-87
2022/12/28 21:24:15;;;;;;;1.73;1.30;;;12.60;99.90;;;;;;6202713;23;20448;-87
2022/12/28 21:26:45;;;;;;;1.90;1.27;;;12.60;99.90;;;;;;6180530;23;20527;-88
2022/12/28 21:29:44;;;;;;;1.87;1.77;;;12.60;99.90;;;;;;6179176;23;20402;-86
2022/12/28 21:32:21;;;;;;;1.90;1.20;;;12.60;99.90;;;;;;6180414;23;20406;-88
2022/12/28 21:35:02;;;;;;;1.67;1.33;;;12.60;99.90;;;;;;6180446;23;20448;-88
2022/12/28 21:37:53;;;;;;;1.37;1.03;;;12.50;99.90;;;;;;6179805;23;20416;-86
2022/12/28 21:40:32;;;;;;;1.40;1.20;;;12.50;99.90;;;;;;6203034;23;20469;-88
2022/12/28 21:43:06;;;;;;;1.60;1.20;;;12.60;99.90;;;;;;6183831;23;20433;-87
2022/12/28 21:45:41;;;;;;;1.17;1.00;;;12.60;99.90;;;;;;6184391;23;20448;-86
2022/12/28 21:48:08;;;;;;;1.73;1.20;;;12.50;99.90;;;;;;6180635;23;20417;-87
2022/12/28 21:51:30;;;;;;;1.30;1.20;;;12.50;99.90;;;;;;6204690;23;20414;-87
2022/12/28 21:54:08;;;;;;;1.60;1.17;;;12.70;99.90;;;;;;6203005;23;20430;-87
2022/12/28 21:56:48;;;;;;;1.40;1.30;;;12.60;99.90;;;;;;6177632;23;20424;-87
2022/12/28 21:59:15;;;;;;;2.70;1.50;;;12.60;99.90;;;;;;6178406;23;20417;-86
2022/12/28 22:07:26;;;;;;;1.70;0.90;;;12.80;99.90;;;;;;6192752;23;20414;-87
2022/12/28 22:12:47;;;;;;;1.43;0.90;;;12.60;99.90;;;;;;6195687;23;20449;-86
2022/12/28 22:18:07;;;;;;;0.80;0.80;;;12.70;99.90;;;;;;6197323;23;20414;-88
2022/12/28 22:20:41;;;;;;;0.80;0.80;;;12.60;99.90;;;;;;6172451;23;20971;-88
2022/12/28 22:23:08;;;;;;;1.30;0.90;;;12.70;99.90;;;;;;6170252;23;20897;-88
2022/12/28 22:25:42;;;;;;;1.07;1.07;;;12.90;99.90;;;;;;6170475;23;20449;-88
2022/12/28 22:28:10;;;;;;;1.27;1.00;;;12.70;99.90;;;;;;6194853;23;20413;-86
2022/12/28 22:30:40;;;;;;;1.10;1.00;;;12.80;99.90;;;;;;6170969;23;20410;-85
2022/12/28 22:33:07;;;;;;;1.20;1.10;;;12.90;99.90;;;;;;6198858;23;20433;-86
2022/12/28 22:35:34;;;;;;;0.97;0.97;;;12.90;99.90;;;;;;6194669;23;20421;-86
2022/12/28 22:38:11;;;;;;;1.80;1.10;;;12.80;99.90;;;;;;6182785;23;20429;-88
2022/12/28 22:40:41;;;;;;;1.47;1.17;;;12.70;99.90;;;;;;6211873;23;20448;-89
2022/12/28 22:43:09;;;;;;;1.50;1.40;;;12.80;99.90;;;;;;6213395;23;20444;-90
2022/12/28 22:45:38;;;;;;;2.17;1.57;;;12.70;99.90;;;;;;6213786;23;20489;-88
2022/12/28 22:48:05;;;;;;;1.80;1.70;;;12.70;99.90;;;;;;6188225;23;20394;-86
2022/12/28 22:50:33;;;;;;;1.50;1.40;;;12.60;99.90;;;;;;6176165;23;20394;-87
2022/12/28 22:53:11;;;;;;;1.23;1.10;;;12.60;99.90;;;;;;6189492;23;20429;-86
2022/12/28 22:55:38;;;;;;;2.10;1.20;;;12.60;99.90;;;;;;6179338;23;20437;-85
2022/12/28 22:58:06;;;;;;;1.10;1.00;;;12.50;99.90;;;;;;6168681;23;20408;-85
2022/12/28 23:00:35;;;;;;;1.80;0.93;;;12.50;99.90;;;;;;6173055;23;20448;-87
2022/12/28 23:03:09;;;;;;;1.47;1.13;;;12.60;99.90;;;;;;6199796;23;20437;-87
2022/12/28 23:05:38;;;;;;;0.90;0.90;;;12.60;99.90;;;;;;6199341;23;20410;-87
2022/12/28 23:08:05;;;;;;;2.37;1.30;;;12.70;99.90;;;;;;6174176;23;20410;-87
2022/12/28 23:10:36;;;;;;;0.93;0.93;;;12.70;99.90;;;;;;6170686;23;20414;-87
2022/12/28 23:13:05;;;;;;;1.40;0.87;;;12.60;99.90;;;;;;6170334;23;20437;-88
2022/12/28 23:15:35;;;;;;;1.30;1.20;;;12.60;99.90;;;;;;6169096;23;20785;-87
2022/12/28 23:29:11;;;;;;;1.33;1.23;;;12.60;99.90;;;;;;6176364;23;20398;-89
2022/12/28 23:31:40;;;;;;;1.43;0.90;;;12.60;99.90;;;;;;6139638;23;20411;-87
2022/12/28 23:34:07;;;;;;;2.30;0.90;;;12.60;99.90;;;;;;6139481;23;20438;-88
2022/12/28 23:36:39;;;;;;;1.07;0.80;;;12.70;99.90;;;;;;6173174;23;20415;-89
2022/12/28 23:39:06;;;;;;;0.70;0.70;;;12.70;99.90;;;;;;6174745;23;20494;-90
2022/12/28 23:41:49;;;;;;;1.10;0.63;;;12.70;99.90;;;;;;6152856;23;20438;-90
2022/12/28 23:44:20;;;;;;;0.80;0.80;;;12.90;99.90;;;;;;6155249;23;20438;-88
2022/12/28 23:46:52;;;;;;;0.97;0.77;;;12.70;99.90;;;;;;6152752;23;20422;-88
2022/12/28 23:49:25;;;;;;;2.10;0.90;;;12.60;99.90;;;;;;6180533;23;20403;-89
2022/12/28 23:51:53;;;;;;;1.43;0.90;;;12.70;99.90;;;;;;6155638;23;20411;-88
2022/12/28 23:54:23;;;;;;;0.67;0.67;;;12.70;99.90;;;;;;6154923;23;20449;-91
2022/12/28 23:56:53;;;;;;;0.80;0.80;;;12.80;99.90;;;;;;6179633;23;20482;-87
2022/12/28 23:59:25;;;;;;;0.70;0.70;;;12.80;99.90;;;;;;6153584;23;20462;-88
